sensor_id;sensor_type;location;lat;lon;timestamp;pressure;altitude;pressure_sealevel;temperature;humidity
70916;BME280;58557;50.982;-3.222;2022-11-14T00:00:58;100356.22;;;15.40;67.73
70916;BME280;58557;50.982;-3.222;2022-11-14T00:03:23;100354.49;;;15.80;67.86
70916;BME280;58557;50.982;-3.222;2022-11-14T00:05:48;100352.64;;;14.92;69.88
70916;BME280;58557;50.982;-3.222;2022-11-14T00:08:16;100354.22;;;16.09;66.47
70916;BME280;58557;50.982;-3.222;2022-11-14T00:10:39;100347.14;;;14.98;69.30
70916;BME280;58557;50.982;-3.222;2022-11-14T00:13:04;100344.23;;;15.74;68.52
70916;BME280;58557;50.982;-3.222;2022-11-14T00:15:30;100337.36;;;15.30;69.92
70916;BME280;58557;50.982;-3.222;2022-11-14T00:17:55;100344.00;;;15.06;70.97
70916;BME280;58557;50.982;-3.222;2022-11-14T00:20:20;100340.58;;;14.99;71.35
70916;BME280;58557;50.982;-3.222;2022-11-14T00:22:46;100337.84;;;15.42;69.10
70916;BME280;58557;50.982;-3.222;2022-11-14T00:25:11;100333.69;;;14.99;69.90
70916;BME280;58557;50.982;-3.222;2022-11-14T00:27:37;100334.83;;;14.15;72.88
70916;BME280;58557;50.982;-3.222;2022-11-14T00:30:02;100328.95;;;14.74;71.61
70916;BME280;58557;50.982;-3.222;2022-11-14T00:32:27;100326.84;;;14.24;72.29
70916;BME280;58557;50.982;-3.222;2022-11-14T00:34:52;100328.05;;;14.83;72.00
70916;BME280;58557;50.982;-3.222;2022-11-14T00:37:18;100320.06;;;15.13;70.13
70916;BME280;58557;50.982;-3.222;2022-11-14T00:39:43;100318.49;;;15.14;69.52
70916;BME280;58557;50.982;-3.222;2022-11-14T00:42:09;100315.53;;;15.14;70.19
70916;BME280;58557;50.982;-3.222;2022-11-14T00:44:34;100315.82;;;14.42;71.83
70916;BME280;58557;50.982;-3.222;2022-11-14T00:47:00;100308.51;;;15.16;69.72
70916;BME280;58557;50.982;-3.222;2022-11-14T00:49:25;100305.91;;;14.76;70.07
70916;BME280;58557;50.982;-3.222;2022-11-14T00:51:50;100311.48;;;15.80;69.87
70916;BME280;58557;50.982;-3.222;2022-11-14T00:54:16;100305.25;;;15.04;71.16
70916;BME280;58557;50.982;-3.222;2022-11-14T00:56:42;100307.78;;;14.70;71.79
70916;BME280;58557;50.982;-3.222;2022-11-14T00:59:07;100305.48;;;15.59;68.37
70916;BME280;58557;50.982;-3.222;2022-11-14T01:01:33;100303.39;;;14.60;71.25
70916;BME280;58557;50.982;-3.222;2022-11-14T01:03:58;100295.48;;;15.04;70.44
70916;BME280;58557;50.982;-3.222;2022-11-14T01:06:23;100295.82;;;14.96;69.85
70916;BME280;58557;50.982;-3.222;2022-11-14T01:08:49;100293.93;;;14.70;71.93
70916;BME280;58557;50.982;-3.222;2022-11-14T01:11:17;100292.45;;;14.29;73.36
70916;BME280;58557;50.982;-3.222;2022-11-14T01:13:39;100289.50;;;14.27;72.78
70916;BME280;58557;50.982;-3.222;2022-11-14T01:16:06;100281.06;;;15.01;69.75
70916;BME280;58557;50.982;-3.222;2022-11-14T01:18:31;100281.82;;;14.78;70.29
70916;BME280;58557;50.982;-3.222;2022-11-14T01:20:57;100280.96;;;14.90;69.74
70916;BME280;58557;50.982;-3.222;2022-11-14T01:23:22;100283.57;;;15.39;68.10
70916;BME280;58557;50.982;-3.222;2022-11-14T01:25:48;100279.07;;;16.74;64.85
70916;BME280;58557;50.982;-3.222;2022-11-14T01:28:16;100278.07;;;16.52;64.65
70916;BME280;58557;50.982;-3.222;2022-11-14T01:30:39;100282.08;;;16.90;63.40
70916;BME280;58557;50.982;-3.222;2022-11-14T01:33:05;100288.25;;;16.57;64.12
70916;BME280;58557;50.982;-3.222;2022-11-14T01:35:30;100288.75;;;16.90;62.47
70916;BME280;58557;50.982;-3.222;2022-11-14T01:37:56;100280.92;;;17.61;58.77
70916;BME280;58557;50.982;-3.222;2022-11-14T01:40:21;100272.42;;;17.90;58.98
70916;BME280;58557;50.982;-3.222;2022-11-14T01:47:38;100268.77;;;18.08;56.98
70916;BME280;58557;50.982;-3.222;2022-11-14T01:50:04;100267.59;;;18.68;54.91
70916;BME280;58557;50.982;-3.222;2022-11-14T01:52:30;100263.26;;;18.58;56.43
70916;BME280;58557;50.982;-3.222;2022-11-14T01:54:58;100258.86;;;17.56;58.77
70916;BME280;58557;50.982;-3.222;2022-11-14T01:57:21;100252.70;;;17.90;58.29
70916;BME280;58557;50.982;-3.222;2022-11-14T01:59:50;100246.32;;;17.43;59.42
70916;BME280;58557;50.982;-3.222;2022-11-14T02:02:14;100241.70;;;16.89;61.74
70916;BME280;58557;50.982;-3.222;2022-11-14T02:04:40;100239.39;;;16.27;63.67
70916;BME280;58557;50.982;-3.222;2022-11-14T02:07:02;100241.15;;;16.10;65.05
70916;BME280;58557;50.982;-3.222;2022-11-14T02:09:28;100247.36;;;16.04;65.40
70916;BME280;58557;50.982;-3.222;2022-11-14T02:11:54;100246.04;;;15.57;65.81
70916;BME280;58557;50.982;-3.222;2022-11-14T02:14:17;100247.47;;;16.05;65.62
70916;BME280;58557;50.982;-3.222;2022-11-14T02:16:43;100245.55;;;15.14;68.15
70916;BME280;58557;50.982;-3.222;2022-11-14T02:19:09;100256.92;;;15.45;67.21
70916;BME280;58557;50.982;-3.222;2022-11-14T02:21:34;100251.32;;;16.24;64.41
70916;BME280;58557;50.982;-3.222;2022-11-14T02:24:00;100253.68;;;15.53;67.73
70916;BME280;58557;50.982;-3.222;2022-11-14T02:26:25;100247.85;;;16.86;62.98
70916;BME280;58557;50.982;-3.222;2022-11-14T02:28:50;100249.56;;;16.27;63.22
70916;BME280;58557;50.982;-3.222;2022-11-14T02:31:16;100247.24;;;15.71;65.66
70916;BME280;58557;50.982;-3.222;2022-11-14T02:33:41;100242.80;;;15.90;65.32
70916;BME280;58557;50.982;-3.222;2022-11-14T02:36:06;100239.89;;;15.78;65.66
70916;BME280;58557;50.982;-3.222;2022-11-14T02:38:32;100229.27;;;16.26;64.54
70916;BME280;58557;50.982;-3.222;2022-11-14T02:40:58;100229.84;;;15.48;66.17
70916;BME280;58557;50.982;-3.222;2022-11-14T02:43:23;100225.62;;;16.17;65.29
70916;BME280;58557;50.982;-3.222;2022-11-14T02:45:48;100220.36;;;15.91;64.68
70916;BME280;58557;50.982;-3.222;2022-11-14T02:48:14;100216.97;;;15.19;65.99
70916;BME280;58557;50.982;-3.222;2022-11-14T02:50:39;100210.58;;;15.95;65.79
70916;BME280;58557;50.982;-3.222;2022-11-14T02:53:05;100209.73;;;16.71;63.12
70916;BME280;58557;50.982;-3.222;2022-11-14T02:55:31;100211.47;;;16.42;64.62
70916;BME280;58557;50.982;-3.222;2022-11-14T02:57:56;100212.83;;;15.89;65.49
70916;BME280;58557;50.982;-3.222;2022-11-14T03:00:22;100217.75;;;16.19;64.31
70916;BME280;58557;50.982;-3.222;2022-11-14T03:02:47;100217.49;;;16.31;62.09
70916;BME280;58557;50.982;-3.222;2022-11-14T03:05:13;100219.44;;;17.16;60.76
70916;BME280;58557;50.982;-3.222;2022-11-14T03:07:38;100223.18;;;17.41;59.21
70916;BME280;58557;50.982;-3.222;2022-11-14T03:10:04;100217.58;;;17.85;57.74
70916;BME280;58557;50.982;-3.222;2022-11-14T03:12:29;100221.36;;;17.86;56.58
70916;BME280;58557;50.982;-3.222;2022-11-14T03:14:55;100222.45;;;18.41;56.43
70916;BME280;58557;50.982;-3.222;2022-11-14T03:17:20;100223.02;;;17.90;57.64
70916;BME280;58557;50.982;-3.222;2022-11-14T03:19:47;100224.91;;;18.04;56.62
70916;BME280;58557;50.982;-3.222;2022-11-14T03:22:11;100228.48;;;16.69;59.00
70916;BME280;58557;50.982;-3.222;2022-11-14T03:24:37;100235.99;;;17.53;57.73
70916;BME280;58557;50.982;-3.222;2022-11-14T03:27:03;100234.62;;;18.28;56.48
70916;BME280;58557;50.982;-3.222;2022-11-14T03:29:28;100237.82;;;18.00;55.79
70916;BME280;58557;50.982;-3.222;2022-11-14T03:31:54;100230.35;;;18.84;53.39
70916;BME280;58557;50.982;-3.222;2022-11-14T03:34:19;100229.14;;;18.67;53.25
70916;BME280;58557;50.982;-3.222;2022-11-14T03:36:44;100236.51;;;18.38;53.30
70916;BME280;58557;50.982;-3.222;2022-11-14T03:39:10;100241.73;;;18.42;54.27
70916;BME280;58557;50.982;-3.222;2022-11-14T03:41:35;100233.77;;;20.18;50.96
70916;BME280;58557;50.982;-3.222;2022-11-14T03:44:01;100230.28;;;19.71;50.16
70916;BME280;58557;50.982;-3.222;2022-11-14T03:46:26;100217.10;;;20.51;49.42
70916;BME280;58557;50.982;-3.222;2022-11-14T03:48:51;100209.58;;;18.74;53.90
70916;BME280;58557;50.982;-3.222;2022-11-14T03:51:16;100206.30;;;19.98;51.30
70916;BME280;58557;50.982;-3.222;2022-11-14T03:53:42;100201.12;;;19.16;51.86
70916;BME280;58557;50.982;-3.222;2022-11-14T03:56:07;100196.25;;;19.05;52.20
70916;BME280;58557;50.982;-3.222;2022-11-14T03:58:33;100190.32;;;19.22;52.79
70916;BME280;58557;50.982;-3.222;2022-11-14T04:00:58;100186.44;;;18.48;54.17
70916;BME280;58557;50.982;-3.222;2022-11-14T04:03:24;100181.54;;;18.81;53.52
70916;BME280;58557;50.982;-3.222;2022-11-14T04:05:49;100182.01;;;18.08;56.46
70916;BME280;58557;50.982;-3.222;2022-11-14T04:08:14;100172.19;;;18.87;55.03
70916;BME280;58557;50.982;-3.222;2022-11-14T04:10:39;100179.10;;;18.22;55.77
70916;BME280;58557;50.982;-3.222;2022-11-14T04:13:04;100171.31;;;17.91;57.89
70916;BME280;58557;50.982;-3.222;2022-11-14T04:15:29;100167.28;;;18.12;57.30
70916;BME280;58557;50.982;-3.222;2022-11-14T04:17:54;100167.87;;;17.96;57.61
70916;BME280;58557;50.982;-3.222;2022-11-14T04:20:20;100163.09;;;16.98;60.66
70916;BME280;58557;50.982;-3.222;2022-11-14T04:22:45;100159.63;;;17.53;59.34
70916;BME280;58557;50.982;-3.222;2022-11-14T04:25:10;100163.49;;;17.97;57.16
70916;BME280;58557;50.982;-3.222;2022-11-14T04:27:35;100161.29;;;18.15;55.81
70916;BME280;58557;50.982;-3.222;2022-11-14T04:30:01;100153.15;;;18.57;54.62
70916;BME280;58557;50.982;-3.222;2022-11-14T04:32:26;100151.84;;;18.70;53.90
70916;BME280;58557;50.982;-3.222;2022-11-14T04:34:52;100154.70;;;18.86;54.01
70916;BME280;58557;50.982;-3.222;2022-11-14T04:37:17;100150.70;;;18.99;53.38
70916;BME280;58557;50.982;-3.222;2022-11-14T04:39:42;100149.06;;;19.68;51.71
70916;BME280;58557;50.982;-3.222;2022-11-14T04:42:08;100141.71;;;18.87;52.82
70916;BME280;58557;50.982;-3.222;2022-11-14T04:44:33;100134.04;;;18.77;53.30
70916;BME280;58557;50.982;-3.222;2022-11-14T04:46:59;100127.99;;;19.11;51.77
70916;BME280;58557;50.982;-3.222;2022-11-14T04:49:24;100127.49;;;18.65;54.09
70916;BME280;58557;50.982;-3.222;2022-11-14T04:51:50;100125.39;;;18.35;53.00
70916;BME280;58557;50.982;-3.222;2022-11-14T04:54:15;100125.51;;;19.07;52.36
70916;BME280;58557;50.982;-3.222;2022-11-14T04:56:41;100122.36;;;19.16;52.19
70916;BME280;58557;50.982;-3.222;2022-11-14T04:59:07;100121.12;;;18.74;52.68
70916;BME280;58557;50.982;-3.222;2022-11-14T05:01:32;100121.87;;;18.88;52.00
70916;BME280;58557;50.982;-3.222;2022-11-14T05:03:57;100123.11;;;18.70;53.88
70916;BME280;58557;50.982;-3.222;2022-11-14T05:06:22;100125.58;;;16.44;57.91
70916;BME280;58557;50.982;-3.222;2022-11-14T05:08:47;100124.84;;;18.03;56.02
70916;BME280;58557;50.982;-3.222;2022-11-14T05:11:13;100120.72;;;18.85;53.45
70916;BME280;58557;50.982;-3.222;2022-11-14T05:13:39;100119.91;;;18.42;55.06
70916;BME280;58557;50.982;-3.222;2022-11-14T05:16:05;100117.11;;;19.18;52.65
70916;BME280;58557;50.982;-3.222;2022-11-14T05:18:29;100120.84;;;18.75;54.51
70916;BME280;58557;50.982;-3.222;2022-11-14T05:20:57;100120.77;;;19.18;51.68
70916;BME280;58557;50.982;-3.222;2022-11-14T05:23:22;100119.75;;;18.91;52.23
70916;BME280;58557;50.982;-3.222;2022-11-14T05:25:46;100120.10;;;19.05;51.57
70916;BME280;58557;50.982;-3.222;2022-11-14T05:28:11;100120.34;;;19.32;50.03
70916;BME280;58557;50.982;-3.222;2022-11-14T05:30:37;100122.24;;;19.02;51.94
70916;BME280;58557;50.982;-3.222;2022-11-14T05:33:02;100125.98;;;18.43;52.44
70916;BME280;58557;50.982;-3.222;2022-11-14T05:35:27;100124.88;;;18.61;53.17
70916;BME280;58557;50.982;-3.222;2022-11-14T05:37:53;100122.09;;;18.90;52.58
70916;BME280;58557;50.982;-3.222;2022-11-14T05:40:18;100127.30;;;17.66;56.08
70916;BME280;58557;50.982;-3.222;2022-11-14T05:42:44;100127.18;;;16.61;58.21
70916;BME280;58557;50.982;-3.222;2022-11-14T05:45:10;100136.12;;;16.53;57.67
70916;BME280;58557;50.982;-3.222;2022-11-14T05:47:35;100154.47;;;13.72;65.85
70916;BME280;58557;50.982;-3.222;2022-11-14T05:50:00;100151.34;;;16.03;62.21
70916;BME280;58557;50.982;-3.222;2022-11-14T05:52:25;100148.37;;;17.78;56.84
70916;BME280;58557;50.982;-3.222;2022-11-14T05:54:50;100153.93;;;17.26;59.55
70916;BME280;58557;50.982;-3.222;2022-11-14T05:57:16;100148.47;;;17.93;56.41
70916;BME280;58557;50.982;-3.222;2022-11-14T05:59:41;100147.56;;;17.32;57.49
70916;BME280;58557;50.982;-3.222;2022-11-14T06:02:06;100144.22;;;17.44;57.79
70916;BME280;58557;50.982;-3.222;2022-11-14T06:04:32;100143.90;;;17.69;56.90
70916;BME280;58557;50.982;-3.222;2022-11-14T06:06:57;100139.53;;;17.67;57.54
70916;BME280;58557;50.982;-3.222;2022-11-14T06:09:23;100137.59;;;17.94;57.14
70916;BME280;58557;50.982;-3.222;2022-11-14T06:11:49;100133.26;;;16.98;59.69
70916;BME280;58557;50.982;-3.222;2022-11-14T06:14:14;100122.34;;;17.61;57.71
70916;BME280;58557;50.982;-3.222;2022-11-14T06:16:39;100121.44;;;17.55;58.01
70916;BME280;58557;50.982;-3.222;2022-11-14T06:19:05;100120.69;;;17.16;58.31
70916;BME280;58557;50.982;-3.222;2022-11-14T06:21:30;100118.98;;;17.42;58.62
70916;BME280;58557;50.982;-3.222;2022-11-14T06:23:55;100120.66;;;16.98;58.80
70916;BME280;58557;50.982;-3.222;2022-11-14T06:26:22;100123.54;;;16.81;59.83
70916;BME280;58557;50.982;-3.222;2022-11-14T06:28:47;100122.04;;;16.72;61.95
70916;BME280;58557;50.982;-3.222;2022-11-14T06:31:12;100123.07;;;16.88;61.22
70916;BME280;58557;50.982;-3.222;2022-11-14T06:33:37;100120.93;;;16.39;62.18
70916;BME280;58557;50.982;-3.222;2022-11-14T06:36:05;100122.14;;;17.02;61.82
70916;BME280;58557;50.982;-3.222;2022-11-14T06:38:30;100124.46;;;16.77;62.13
70916;BME280;58557;50.982;-3.222;2022-11-14T06:41:02;100122.33;;;17.68;60.16
70916;BME280;58557;50.982;-3.222;2022-11-14T06:43:19;100123.36;;;18.10;57.98
70916;BME280;58557;50.982;-3.222;2022-11-14T06:45:45;100125.99;;;17.39;59.90
70916;BME280;58557;50.982;-3.222;2022-11-14T06:48:10;100129.18;;;17.46;60.16
70916;BME280;58557;50.982;-3.222;2022-11-14T06:50:36;100128.77;;;17.08;61.20
70916;BME280;58557;50.982;-3.222;2022-11-14T06:53:01;100131.93;;;17.44;59.06
70916;BME280;58557;50.982;-3.222;2022-11-14T06:55:26;100129.89;;;17.46;60.00
70916;BME280;58557;50.982;-3.222;2022-11-14T06:57:52;100128.94;;;17.11;60.64
70916;BME280;58557;50.982;-3.222;2022-11-14T07:00:16;100129.10;;;17.15;60.19
70916;BME280;58557;50.982;-3.222;2022-11-14T07:02:44;100127.33;;;17.80;59.04
70916;BME280;58557;50.982;-3.222;2022-11-14T07:05:07;100127.54;;;16.61;61.61
70916;BME280;58557;50.982;-3.222;2022-11-14T07:07:33;100130.76;;;18.00;59.08
70916;BME280;58557;50.982;-3.222;2022-11-14T07:09:58;100131.13;;;17.81;59.23
70916;BME280;58557;50.982;-3.222;2022-11-14T07:12:24;100132.35;;;16.86;61.62
70916;BME280;58557;50.982;-3.222;2022-11-14T07:14:49;100133.21;;;16.86;61.99
70916;BME280;58557;50.982;-3.222;2022-11-14T07:17:15;100132.64;;;17.33;61.48
70916;BME280;58557;50.982;-3.222;2022-11-14T07:19:40;100131.83;;;17.62;59.94
70916;BME280;58557;50.982;-3.222;2022-11-14T07:22:06;100129.07;;;17.66;60.10
70916;BME280;58557;50.982;-3.222;2022-11-14T07:24:31;100131.30;;;18.67;57.89
70916;BME280;58557;50.982;-3.222;2022-11-14T07:26:56;100133.37;;;18.31;58.35
70916;BME280;58557;50.982;-3.222;2022-11-14T07:29:22;100133.59;;;17.94;59.31
70916;BME280;58557;50.982;-3.222;2022-11-14T07:31:47;100130.68;;;17.42;60.11
70916;BME280;58557;50.982;-3.222;2022-11-14T07:34:13;100128.45;;;17.74;60.85
70916;BME280;58557;50.982;-3.222;2022-11-14T07:36:39;100131.98;;;17.02;61.98
70916;BME280;58557;50.982;-3.222;2022-11-14T07:39:04;100134.94;;;16.99;63.32
70916;BME280;58557;50.982;-3.222;2022-11-14T07:41:30;100135.65;;;17.14;61.59
70916;BME280;58557;50.982;-3.222;2022-11-14T07:43:55;100136.56;;;18.18;58.67
70916;BME280;58557;50.982;-3.222;2022-11-14T07:46:20;100135.74;;;17.58;59.30
70916;BME280;58557;50.982;-3.222;2022-11-14T07:48:46;100130.75;;;18.25;58.51
70916;BME280;58557;50.982;-3.222;2022-11-14T07:51:14;100134.97;;;17.44;61.19
70916;BME280;58557;50.982;-3.222;2022-11-14T07:53:37;100133.95;;;18.49;58.10
70916;BME280;58557;50.982;-3.222;2022-11-14T07:56:04;100138.88;;;17.71;59.15
70916;BME280;58557;50.982;-3.222;2022-11-14T07:58:28;100138.63;;;17.89;58.82
70916;BME280;58557;50.982;-3.222;2022-11-14T08:00:53;100136.14;;;17.95;57.95
70916;BME280;58557;50.982;-3.222;2022-11-14T08:03:19;100138.10;;;17.41;59.08
70916;BME280;58557;50.982;-3.222;2022-11-14T08:05:44;100136.90;;;17.42;60.07
70916;BME280;58557;50.982;-3.222;2022-11-14T08:08:09;100134.76;;;18.01;58.66
70916;BME280;58557;50.982;-3.222;2022-11-14T08:10:35;100136.92;;;17.30;60.35
70916;BME280;58557;50.982;-3.222;2022-11-14T08:13:02;100128.44;;;17.78;59.83
70916;BME280;58557;50.982;-3.222;2022-11-14T08:15:26;100125.55;;;18.10;58.84
70916;BME280;58557;50.982;-3.222;2022-11-14T08:17:51;100121.96;;;17.66;59.78
70916;BME280;58557;50.982;-3.222;2022-11-14T08:20:17;100121.92;;;16.40;64.75
70916;BME280;58557;50.982;-3.222;2022-11-14T08:22:42;100120.50;;;16.80;62.99
70916;BME280;58557;50.982;-3.222;2022-11-14T08:25:08;100111.99;;;16.03;65.29
70916;BME280;58557;50.982;-3.222;2022-11-14T08:27:33;100114.28;;;16.67;63.73
70916;BME280;58557;50.982;-3.222;2022-11-14T08:29:58;100108.35;;;16.45;64.34
70916;BME280;58557;50.982;-3.222;2022-11-14T08:32:24;100112.74;;;16.82;63.08
70916;BME280;58557;50.982;-3.222;2022-11-14T08:34:50;100108.58;;;16.92;62.93
70916;BME280;58557;50.982;-3.222;2022-11-14T08:37:15;100110.29;;;16.75;63.50
70916;BME280;58557;50.982;-3.222;2022-11-14T08:39:40;100107.14;;;17.07;62.63
70916;BME280;58557;50.982;-3.222;2022-11-14T08:42:06;100102.93;;;17.19;62.23
70916;BME280;58557;50.982;-3.222;2022-11-14T08:44:32;100094.57;;;17.75;59.67
70916;BME280;58557;50.982;-3.222;2022-11-14T08:46:57;100093.83;;;17.50;60.23
70916;BME280;58557;50.982;-3.222;2022-11-14T08:49:23;100093.78;;;17.82;59.51
70916;BME280;58557;50.982;-3.222;2022-11-14T08:51:51;100094.91;;;18.01;60.01
70916;BME280;58557;50.982;-3.222;2022-11-14T08:54:14;100099.57;;;18.85;57.14
70916;BME280;58557;50.982;-3.222;2022-11-14T08:56:40;100098.72;;;18.37;56.80
70916;BME280;58557;50.982;-3.222;2022-11-14T08:59:05;100097.22;;;18.35;56.67
70916;BME280;58557;50.982;-3.222;2022-11-14T09:01:30;100095.93;;;19.01;54.10
70916;BME280;58557;50.982;-3.222;2022-11-14T09:03:56;100093.80;;;18.99;55.29
70916;BME280;58557;50.982;-3.222;2022-11-14T09:06:21;100096.26;;;19.07;55.21
70916;BME280;58557;50.982;-3.222;2022-11-14T09:08:47;100093.98;;;18.94;54.78
70916;BME280;58557;50.982;-3.222;2022-11-14T09:11:13;100091.07;;;18.90;55.86
70916;BME280;58557;50.982;-3.222;2022-11-14T09:13:39;100088.92;;;18.55;58.05
70916;BME280;58557;50.982;-3.222;2022-11-14T09:16:05;100084.89;;;18.65;56.59
70916;BME280;58557;50.982;-3.222;2022-11-14T09:18:30;100084.23;;;18.30;57.13
70916;BME280;58557;50.982;-3.222;2022-11-14T09:20:59;100086.00;;;17.47;59.39
70916;BME280;58557;50.982;-3.222;2022-11-14T09:23:21;100075.77;;;18.34;57.61
70916;BME280;58557;50.982;-3.222;2022-11-14T09:25:47;100074.06;;;18.55;57.52
70916;BME280;58557;50.982;-3.222;2022-11-14T09:28:12;100066.64;;;18.72;56.77
70916;BME280;58557;50.982;-3.222;2022-11-14T09:30:38;100073.48;;;19.11;56.15
70916;BME280;58557;50.982;-3.222;2022-11-14T09:33:04;100074.49;;;19.47;54.75
70916;BME280;58557;50.982;-3.222;2022-11-14T09:35:30;100076.57;;;19.38;54.36
70916;BME280;58557;50.982;-3.222;2022-11-14T09:37:59;100074.27;;;18.58;55.03
70916;BME280;58557;50.982;-3.222;2022-11-14T09:40:19;100074.26;;;19.17;54.12
70916;BME280;58557;50.982;-3.222;2022-11-14T09:43:04;100070.15;;;18.78;55.81
70916;BME280;58557;50.982;-3.222;2022-11-14T09:45:12;100071.20;;;18.28;56.92
70916;BME280;58557;50.982;-3.222;2022-11-14T09:47:39;100063.89;;;18.45;55.11
70916;BME280;58557;50.982;-3.222;2022-11-14T09:50:06;100059.44;;;18.43;57.57
70916;BME280;58557;50.982;-3.222;2022-11-14T09:52:32;100059.74;;;18.66;56.19
70916;BME280;58557;50.982;-3.222;2022-11-14T09:54:55;100064.12;;;19.77;54.73
70916;BME280;58557;50.982;-3.222;2022-11-14T09:57:19;100067.76;;;18.95;54.72
70916;BME280;58557;50.982;-3.222;2022-11-14T09:59:45;100064.90;;;19.21;54.34
70916;BME280;58557;50.982;-3.222;2022-11-14T10:02:19;100066.51;;;18.54;54.99
70916;BME280;58557;50.982;-3.222;2022-11-14T10:04:45;100065.43;;;18.73;55.03
70916;BME280;58557;50.982;-3.222;2022-11-14T10:07:09;100065.69;;;19.30;55.31
70916;BME280;58557;50.982;-3.222;2022-11-14T10:09:39;100065.39;;;17.84;56.99
70916;BME280;58557;50.982;-3.222;2022-11-14T10:11:57;100070.59;;;17.36;58.79
70916;BME280;58557;50.982;-3.222;2022-11-14T10:14:40;100062.09;;;17.67;58.03
70916;BME280;58557;50.982;-3.222;2022-11-14T10:16:50;100068.64;;;17.12;58.75
70916;BME280;58557;50.982;-3.222;2022-11-14T10:19:17;100068.42;;;15.93;60.93
70916;BME280;58557;50.982;-3.222;2022-11-14T10:21:45;100076.78;;;17.01;59.73
70916;BME280;58557;50.982;-3.222;2022-11-14T10:24:12;100071.61;;;17.54;58.69
70916;BME280;58557;50.982;-3.222;2022-11-14T10:26:28;100067.39;;;17.29;57.24
70916;BME280;58557;50.982;-3.222;2022-11-14T10:29:04;100058.77;;;17.79;56.53
70916;BME280;58557;50.982;-3.222;2022-11-14T10:31:24;100059.83;;;17.31;57.62
70916;BME280;58557;50.982;-3.222;2022-11-14T10:33:52;100058.76;;;18.08;56.58
70916;BME280;58557;50.982;-3.222;2022-11-14T10:36:14;100060.19;;;18.06;55.70
70916;BME280;58557;50.982;-3.222;2022-11-14T10:38:40;100067.25;;;17.74;55.90
70916;BME280;58557;50.982;-3.222;2022-11-14T10:41:04;100067.36;;;17.14;56.67
70916;BME280;58557;50.982;-3.222;2022-11-14T10:43:31;100067.41;;;18.47;55.82
70916;BME280;58557;50.982;-3.222;2022-11-14T10:45:55;100069.59;;;18.13;55.32
70916;BME280;58557;50.982;-3.222;2022-11-14T10:48:27;100066.65;;;17.70;56.84
70916;BME280;58557;50.982;-3.222;2022-11-14T10:50:48;100065.18;;;16.83;60.44
70916;BME280;58557;50.982;-3.222;2022-11-14T10:53:15;100058.05;;;15.50;61.95
70916;BME280;58557;50.982;-3.222;2022-11-14T10:55:34;100065.68;;;16.57;61.19
70916;BME280;58557;50.982;-3.222;2022-11-14T10:58:00;100066.26;;;17.19;58.37
70916;BME280;58557;50.982;-3.222;2022-11-14T11:00:26;100066.23;;;17.39;58.68
70916;BME280;58557;50.982;-3.222;2022-11-14T11:02:53;100065.35;;;18.12;57.32
70916;BME280;58557;50.982;-3.222;2022-11-14T11:05:19;100060.14;;;17.68;57.54
70916;BME280;58557;50.982;-3.222;2022-11-14T11:07:44;100059.96;;;18.18;55.43
70916;BME280;58557;50.982;-3.222;2022-11-14T11:10:19;100060.23;;;18.27;55.71
70916;BME280;58557;50.982;-3.222;2022-11-14T11:12:41;100059.48;;;18.27;55.62
70916;BME280;58557;50.982;-3.222;2022-11-14T11:15:12;100057.34;;;18.41;55.36
70916;BME280;58557;50.982;-3.222;2022-11-14T11:17:25;100051.34;;;18.15;55.72
70916;BME280;58557;50.982;-3.222;2022-11-14T11:19:50;100045.53;;;17.84;56.14
70916;BME280;58557;50.982;-3.222;2022-11-14T11:22:26;100044.16;;;18.30;56.49
70916;BME280;58557;50.982;-3.222;2022-11-14T11:24:42;100038.57;;;17.33;57.85
70916;BME280;58557;50.982;-3.222;2022-11-14T11:27:19;100036.38;;;18.68;54.95
70916;BME280;58557;50.982;-3.222;2022-11-14T11:29:33;100038.89;;;18.99;53.41
70916;BME280;58557;50.982;-3.222;2022-11-14T11:31:59;100043.40;;;19.07;53.54
70916;BME280;58557;50.982;-3.222;2022-11-14T11:34:28;100048.08;;;15.87;59.83
70916;BME280;58557;50.982;-3.222;2022-11-14T11:36:54;100044.69;;;16.99;59.24
70916;BME280;58557;50.982;-3.222;2022-11-14T11:39:21;100045.60;;;15.71;64.47
70916;BME280;58557;50.982;-3.222;2022-11-14T11:41:42;100042.07;;;15.55;60.86
70916;BME280;58557;50.982;-3.222;2022-11-14T11:44:12;100051.91;;;14.02;67.35
70916;BME280;58557;50.982;-3.222;2022-11-14T11:46:39;100051.28;;;15.58;63.45
70916;BME280;58557;50.982;-3.222;2022-11-14T11:49:02;100059.30;;;17.07;57.98
70916;BME280;58557;50.982;-3.222;2022-11-14T11:51:24;100054.81;;;15.94;59.43
70916;BME280;58557;50.982;-3.222;2022-11-14T11:53:56;100057.92;;;14.89;61.33
70916;BME280;58557;50.982;-3.222;2022-11-14T11:56:18;100051.96;;;14.50;62.26
70916;BME280;58557;50.982;-3.222;2022-11-14T11:58:44;100049.12;;;14.60;62.28
70916;BME280;58557;50.982;-3.222;2022-11-14T12:01:09;100050.40;;;14.05;63.88
70916;BME280;58557;50.982;-3.222;2022-11-14T12:03:33;100047.01;;;13.18;67.60
70916;BME280;58557;50.982;-3.222;2022-11-14T12:06:07;100046.87;;;12.85;67.46
70916;BME280;58557;50.982;-3.222;2022-11-14T12:08:31;100047.03;;;13.90;66.36
70916;BME280;58557;50.982;-3.222;2022-11-14T12:10:49;100048.89;;;12.65;69.08
70916;BME280;58557;50.982;-3.222;2022-11-14T12:15:49;100047.45;;;14.53;63.69
70916;BME280;58557;50.982;-3.222;2022-11-14T12:20:46;100039.39;;;13.76;65.30
70916;BME280;58557;50.982;-3.222;2022-11-14T12:23:14;100033.07;;;14.28;63.80
70916;BME280;58557;50.982;-3.222;2022-11-14T12:25:37;100030.79;;;14.60;61.39
70916;BME280;58557;50.982;-3.222;2022-11-14T12:27:59;100024.60;;;14.97;60.34
70916;BME280;58557;50.982;-3.222;2022-11-14T12:30:17;100023.52;;;15.08;59.78
70916;BME280;58557;50.982;-3.222;2022-11-14T12:32:44;100021.79;;;13.40;65.67
70916;BME280;58557;50.982;-3.222;2022-11-14T12:35:13;100014.43;;;14.29;63.44
70916;BME280;58557;50.982;-3.222;2022-11-14T12:37:33;100011.49;;;14.42;62.98
70916;BME280;58557;50.982;-3.222;2022-11-14T12:40:00;100010.76;;;15.10;61.18